BIN weather

Bamiyan Airport
Bamiyan, Bamiyan Province, Afghanistan

Public forecast

Using degrees Celsius for public forecast. Weather courtesy of forecast.io.

Closest aviation weather report (METAR) to Bamiyan Airport

Closest report is Hamid Karzai International Airport, 70.5 nm (130.6 km) ESE. Retrieved 2020/07/08 08:50 UTC (1 hour ago):

OAKB 080850Z 31004KT CAVOK 33/07 Q1014 RMK A2995 BLU BLU

Closest aviation forecast (TAF) to Bamiyan Airport

Closest forecast is Hamid Karzai International Airport, 70.5 nm (130.6 km) ESE. Retrieved 2020/07/08 06:05 UTC (4 hours ago):

TAF OAKB 080505Z 0806/0906 34006KT CAVOK BECMG 0807/0809 02010G20KT 9999 SCT080 TEMPO 0809/0813 VRB20G30KT 9999 VCTS SCT080CB BECMG 0816/0818 34006KT CAVOK PROB40 TEMPO 0900/0904 5000 HZ NSC